createdAt,value
2019-02-10T00:02:56.096Z,99.90
2019-02-10T00:05:56.881Z,99.90
2019-02-10T00:08:57.680Z,99.90
2019-02-10T00:11:58.285Z,99.90
2019-02-10T00:14:58.740Z,99.90
2019-02-10T00:17:59.946Z,99.90
2019-02-10T00:21:00.754Z,99.90
2019-02-10T00:24:01.213Z,99.90
2019-02-10T00:27:01.714Z,99.90
2019-02-10T00:30:02.248Z,99.90
2019-02-10T00:33:02.735Z,99.90
2019-02-10T00:36:03.157Z,99.90
2019-02-10T00:39:05.258Z,99.90
2019-02-10T00:42:06.504Z,99.90
2019-02-10T00:45:07.035Z,99.90
2019-02-10T00:48:07.771Z,99.90
2019-02-10T00:51:08.050Z,99.90
2019-02-10T00:54:08.877Z,99.90
2019-02-10T00:57:09.438Z,99.90
2019-02-10T01:00:10.436Z,99.90
2019-02-10T01:03:11.224Z,99.90
2019-02-10T01:06:11.697Z,99.90
2019-02-10T01:09:12.388Z,99.90
2019-02-10T01:12:13.713Z,99.90
2019-02-10T01:15:14.177Z,99.90
2019-02-10T01:18:14.997Z,99.90
2019-02-10T01:21:15.278Z,99.90
2019-02-10T01:24:16.453Z,99.90
2019-02-10T01:27:16.853Z,99.90
2019-02-10T01:30:17.459Z,99.90
2019-02-10T01:33:18.765Z,99.90
2019-02-10T01:36:19.313Z,99.90
2019-02-10T01:42:07.302Z,99.90
2019-02-10T01:45:15.233Z,99.90
2019-02-10T01:48:16.385Z,99.90
2019-02-10T01:51:17.250Z,99.90
2019-02-10T01:54:17.827Z,99.90
2019-02-10T01:57:18.449Z,99.90
2019-02-10T02:00:19.030Z,99.90
2019-02-10T02:03:20.206Z,99.90
2019-02-10T02:06:20.693Z,99.90
2019-02-10T02:12:49.546Z,99.90
2019-02-10T02:15:50.125Z,99.90
2019-02-10T02:18:50.757Z,99.90
2019-02-10T02:21:51.293Z,99.90
2019-02-10T02:24:51.995Z,99.90
2019-02-10T02:27:52.327Z,99.90
2019-02-10T02:30:52.918Z,99.90
2019-02-10T02:33:53.633Z,99.90
2019-02-10T02:36:54.872Z,99.90
2019-02-10T02:39:55.159Z,99.90
2019-02-10T02:42:55.553Z,99.90
2019-02-10T02:45:56.009Z,99.90
2019-02-10T02:48:57.068Z,99.90
2019-02-10T02:51:57.573Z,99.90
2019-02-10T02:54:58.186Z,99.90
2019-02-10T02:57:58.757Z,99.90
2019-02-10T03:00:59.442Z,99.90
2019-02-10T03:04:00.545Z,99.90
2019-02-10T03:07:00.857Z,99.90
2019-02-10T03:10:01.941Z,99.90
2019-02-10T03:13:02.340Z,99.90
2019-02-10T03:16:02.782Z,99.90
2019-02-10T03:19:03.219Z,99.90
2019-02-10T03:22:04.071Z,99.90
2019-02-10T03:25:04.394Z,99.90
2019-02-10T03:28:04.850Z,99.90
2019-02-10T03:31:05.356Z,99.90
2019-02-10T03:34:05.958Z,99.90
2019-02-10T03:37:06.409Z,99.90
2019-02-10T03:40:06.920Z,99.90
2019-02-10T03:43:07.709Z,99.90
2019-02-10T03:46:08.319Z,99.90
2019-02-10T03:49:09.385Z,99.90
2019-02-10T03:52:09.647Z,99.90
2019-02-10T03:55:10.178Z,99.90
2019-02-10T03:58:10.517Z,99.90
2019-02-10T04:01:10.876Z,99.90
2019-02-10T04:04:11.584Z,99.90
2019-02-10T04:07:12.325Z,99.90
2019-02-10T04:10:13.573Z,99.90
2019-02-10T04:13:13.883Z,99.90
2019-02-10T04:16:14.632Z,99.90
2019-02-10T04:19:14.884Z,99.90
2019-02-10T04:22:15.388Z,99.90
2019-02-10T04:25:16.040Z,99.90
2019-02-10T04:28:16.586Z,99.90
2019-02-10T04:31:16.908Z,99.90
2019-02-10T04:34:17.572Z,99.90
2019-02-10T04:37:18.859Z,99.90
2019-02-10T04:40:19.887Z,99.90
2019-02-10T04:43:20.503Z,99.90
2019-02-10T04:46:20.799Z,99.90
2019-02-10T04:49:22.117Z,99.90
2019-02-10T04:52:22.492Z,99.90
2019-02-10T04:55:22.758Z,99.90
2019-02-10T04:58:23.286Z,99.90
2019-02-10T05:01:23.937Z,99.90
2019-02-10T05:04:24.449Z,99.90
2019-02-10T05:07:24.804Z,99.90
2019-02-10T05:10:26.131Z,99.90
2019-02-10T05:13:26.721Z,99.90
2019-02-10T05:16:27.450Z,99.90
2019-02-10T05:19:27.800Z,99.90
2019-02-10T05:22:28.222Z,99.90
2019-02-10T05:25:28.828Z,99.90
2019-02-10T05:28:29.463Z,99.90
2019-02-10T05:31:29.685Z,99.90
2019-02-10T05:34:30.033Z,99.90
2019-02-10T05:37:31.189Z,99.90
2019-02-10T05:40:32.127Z,99.90
2019-02-10T05:43:32.861Z,99.90
2019-02-10T05:46:21.348Z,99.90
2019-02-10T05:49:29.220Z,99.90
2019-02-10T05:52:29.923Z,99.90
2019-02-10T05:55:30.763Z,99.90
2019-02-10T05:58:31.304Z,99.90
2019-02-10T06:01:31.799Z,99.90
2019-02-10T06:04:32.278Z,99.90
2019-02-10T06:07:33.108Z,99.90
2019-02-10T06:10:33.493Z,99.90
2019-02-10T06:13:33.890Z,99.90
2019-02-10T06:16:34.606Z,99.90
2019-02-10T06:19:23.384Z,99.90
2019-02-10T06:22:31.220Z,99.90
2019-02-10T06:25:32.069Z,99.90
2019-02-10T06:28:32.941Z,99.90
2019-02-10T06:31:33.794Z,99.90
2019-02-10T06:34:34.321Z,99.90
2019-02-10T06:37:34.661Z,99.90
2019-02-10T06:40:34.923Z,99.90
2019-02-10T06:43:35.368Z,99.90
2019-02-10T06:46:36.105Z,99.90
2019-02-10T06:53:12.450Z,99.90
2019-02-10T06:56:13.083Z,99.90
2019-02-10T06:59:18.252Z,99.90
2019-02-10T07:02:38.388Z,99.90
2019-02-10T07:05:39.333Z,99.90
2019-02-10T07:11:23.622Z,99.90
2019-02-10T07:14:24.074Z,99.90
2019-02-10T07:17:24.985Z,99.90
2019-02-10T07:20:25.471Z,99.90
2019-02-10T07:23:26.084Z,99.90
2019-02-10T07:26:26.779Z,99.90
2019-02-10T07:29:27.247Z,99.90
2019-02-10T07:32:27.687Z,99.90
2019-02-10T07:35:28.804Z,99.90
2019-02-10T07:38:29.680Z,99.90
2019-02-10T07:41:30.735Z,99.30
2019-02-10T07:44:31.173Z,99.10
2019-02-10T07:47:31.899Z,98.80
2019-02-10T07:50:32.777Z,99.30
2019-02-10T07:53:33.156Z,98.20
2019-02-10T07:56:33.417Z,98.50
2019-02-10T07:59:34.122Z,97.70
2019-02-10T08:02:34.581Z,97.40
2019-02-10T08:05:35.338Z,97.20
2019-02-10T08:08:36.081Z,97.20
2019-02-10T08:11:36.360Z,97.40
2019-02-10T08:14:37.153Z,97.40
2019-02-10T08:17:37.540Z,96.40
2019-02-10T08:20:38.095Z,95.10
2019-02-10T08:23:38.757Z,95.30
2019-02-10T08:26:39.497Z,94.40
2019-02-10T08:29:40.034Z,94.40
2019-02-10T08:32:40.762Z,94.50
2019-02-10T08:35:41.565Z,94.60
2019-02-10T08:38:41.861Z,94.50
2019-02-10T08:41:42.401Z,94.00
2019-02-10T08:44:42.802Z,93.60
2019-02-10T08:48:11.370Z,92.60
2019-02-10T08:51:31.090Z,92.50
2019-02-10T08:54:42.467Z,92.20
2019-02-10T08:57:43.625Z,91.60
2019-02-10T09:00:32.276Z,92.10
2019-02-10T09:03:40.269Z,91.30
2019-02-10T09:06:41.060Z,91.40
2019-02-10T09:09:41.749Z,91.10
2019-02-10T09:12:42.829Z,91.20
2019-02-10T09:15:43.542Z,91.10
2019-02-10T09:18:44.096Z,90.60
2019-02-10T09:21:45.426Z,91.50
2019-02-10T09:28:08.310Z,86.60
2019-02-10T09:31:08.877Z,86.40
2019-02-10T09:34:09.714Z,86.50
2019-02-10T09:37:10.161Z,84.70
2019-02-10T09:40:10.989Z,83.70
2019-02-10T09:43:11.390Z,82.00
2019-02-10T09:46:11.911Z,82.20
2019-02-10T09:49:12.644Z,81.40
2019-02-10T09:52:13.228Z,81.50
2019-02-10T09:55:13.923Z,81.10
2019-02-10T09:58:14.379Z,81.40
2019-02-10T10:01:14.953Z,80.30
2019-02-10T10:04:15.735Z,78.40
2019-02-10T10:07:16.029Z,78.70
2019-02-10T10:10:16.705Z,77.90
2019-02-10T10:13:18.277Z,77.80
2019-02-10T10:16:18.687Z,77.70
2019-02-10T10:19:19.405Z,78.50
2019-02-10T10:22:21.688Z,75.90
2019-02-10T10:25:22.653Z,76.50
2019-02-10T10:28:23.387Z,75.60
2019-02-10T10:31:24.507Z,74.80
2019-02-10T10:34:24.981Z,74.20
2019-02-10T10:37:25.282Z,75.30
2019-02-10T10:40:27.274Z,74.70
2019-02-10T10:43:28.362Z,74.10
2019-02-10T10:46:28.702Z,74.60
2019-02-10T10:49:29.243Z,73.20
2019-02-10T10:52:29.783Z,73.70
2019-02-10T10:55:30.082Z,73.50
2019-02-10T10:58:30.391Z,72.70
2019-02-10T11:01:30.973Z,71.90
2019-02-10T11:04:32.145Z,72.80
2019-02-10T11:07:32.594Z,72.50
2019-02-10T11:10:33.228Z,71.50
2019-02-10T11:13:34.609Z,69.60
2019-02-10T11:16:35.049Z,69.20
2019-02-10T11:19:36.277Z,69.00
2019-02-10T11:22:36.769Z,69.60
2019-02-10T11:25:37.302Z,69.90
2019-02-10T11:28:39.053Z,69.40
2019-02-10T11:31:40.563Z,65.80
2019-02-10T11:34:46.263Z,62.00
2019-02-10T11:37:47.348Z,61.40
2019-02-10T11:40:48.853Z,59.50
2019-02-10T11:43:50.147Z,59.10
2019-02-10T11:46:51.764Z,60.10
2019-02-10T11:49:53.505Z,59.30
2019-02-10T11:52:43.043Z,58.90
2019-02-10T11:55:44.817Z,59.40
2019-02-10T11:58:45.971Z,55.60
2019-02-10T12:01:46.536Z,47.90
2019-02-10T12:04:47.429Z,42.90
2019-02-10T12:07:48.846Z,41.60
2019-02-10T12:10:49.364Z,40.80
2019-02-10T12:13:50.157Z,41.70
2019-02-10T12:16:51.345Z,41.40
2019-02-10T12:19:52.317Z,42.20
2019-02-10T12:22:52.889Z,44.00
2019-02-10T12:25:53.894Z,42.80
2019-02-10T12:28:54.726Z,44.80
2019-02-10T12:31:56.018Z,45.80
2019-02-10T12:34:56.815Z,46.80
2019-02-10T12:37:57.784Z,48.20
2019-02-10T12:40:58.345Z,50.20
2019-02-10T12:43:59.338Z,49.80
2019-02-10T12:47:00.481Z,50.70
2019-02-10T12:50:01.544Z,51.10
2019-02-10T12:53:02.181Z,51.80
2019-02-10T12:56:03.133Z,54.70
2019-02-10T12:59:04.540Z,56.10
2019-02-10T13:02:05.256Z,60.10
2019-02-10T13:05:06.145Z,63.40
2019-02-10T13:08:07.018Z,67.00
2019-02-10T13:11:07.669Z,75.60
2019-02-10T13:14:09.067Z,83.20
2019-02-10T13:17:09.934Z,89.90
2019-02-10T13:20:10.575Z,92.10
2019-02-10T13:23:11.435Z,96.30
2019-02-10T13:26:15.454Z,99.90
2019-02-10T13:29:16.242Z,99.90
2019-02-10T13:32:18.005Z,99.90
2019-02-10T13:35:18.998Z,99.90
2019-02-10T13:38:19.975Z,99.90
2019-02-10T13:41:21.569Z,99.90
2019-02-10T13:44:23.125Z,99.90
2019-02-10T13:47:24.434Z,99.90
2019-02-10T13:50:24.879Z,99.90
2019-02-10T13:53:25.409Z,99.90
2019-02-10T13:56:25.884Z,99.90
2019-02-10T13:59:26.706Z,99.90
2019-02-10T14:02:27.491Z,99.90
2019-02-10T14:05:28.288Z,99.90
2019-02-10T14:08:28.982Z,99.90
2019-02-10T14:11:29.513Z,99.90
2019-02-10T14:14:30.262Z,99.90
2019-02-10T14:17:30.925Z,99.90
2019-02-10T14:20:31.466Z,99.90
2019-02-10T14:23:31.937Z,99.90
2019-02-10T14:26:32.986Z,99.90
2019-02-10T14:29:33.738Z,99.90
2019-02-10T14:32:34.491Z,99.90
2019-02-10T14:35:34.883Z,99.90
2019-02-10T14:38:36.636Z,99.90
2019-02-10T14:41:37.862Z,99.90
2019-02-10T14:44:38.459Z,99.90
2019-02-10T14:47:38.945Z,99.90
2019-02-10T14:50:39.736Z,99.90
2019-02-10T14:53:40.246Z,99.90
2019-02-10T14:56:40.882Z,99.90
2019-02-10T14:59:41.265Z,99.90
2019-02-10T15:02:41.852Z,99.90
2019-02-10T15:05:42.314Z,99.90
2019-02-10T15:08:42.695Z,99.90
2019-02-10T15:11:43.236Z,99.90
2019-02-10T15:14:43.710Z,99.90
2019-02-10T15:17:44.128Z,99.90
2019-02-10T15:20:44.646Z,99.90
2019-02-10T15:23:45.537Z,99.90
2019-02-10T15:26:45.900Z,99.90
2019-02-10T15:29:46.247Z,99.90
2019-02-10T15:32:46.609Z,99.90
2019-02-10T15:35:46.952Z,99.90
2019-02-10T15:38:47.616Z,99.90
2019-02-10T15:41:49.408Z,99.90
2019-02-10T15:44:50.621Z,99.90
2019-02-10T15:47:51.121Z,99.90
2019-02-10T15:50:51.935Z,99.90
2019-02-10T15:53:52.875Z,99.90
2019-02-10T15:56:54.294Z,99.90
2019-02-10T15:59:54.854Z,99.90
2019-02-10T16:02:55.898Z,99.90
2019-02-10T16:05:56.619Z,99.90
2019-02-10T16:08:57.149Z,99.90
2019-02-10T16:11:57.727Z,99.90
2019-02-10T16:15:00.567Z,99.90
2019-02-10T16:18:01.906Z,99.90
2019-02-10T16:21:02.845Z,99.90
2019-02-10T16:24:03.472Z,99.90
2019-02-10T16:27:03.800Z,99.90
2019-02-10T16:30:04.182Z,99.90
2019-02-10T16:33:04.994Z,99.90
2019-02-10T16:36:05.837Z,99.90
2019-02-10T16:39:09.113Z,99.90
2019-02-10T16:42:10.024Z,99.90
2019-02-10T16:44:58.856Z,99.90
2019-02-10T16:51:12.774Z,99.90
2019-02-10T16:54:13.210Z,99.90
2019-02-10T16:57:13.598Z,99.90
2019-02-10T17:00:15.198Z,99.90
2019-02-10T17:03:16.201Z,99.90
2019-02-10T17:06:16.995Z,99.90
2019-02-10T17:09:17.547Z,99.90
2019-02-10T17:12:18.174Z,99.90
2019-02-10T17:15:18.755Z,99.90
2019-02-10T17:18:20.694Z,99.90
2019-02-10T17:21:21.850Z,99.90
2019-02-10T17:24:28.099Z,99.90
2019-02-10T17:27:29.494Z,99.90
2019-02-10T17:30:30.226Z,99.90
2019-02-10T17:33:30.895Z,99.90
2019-02-10T17:36:31.470Z,99.90
2019-02-10T17:39:32.332Z,99.90
2019-02-10T17:42:33.033Z,99.90
2019-02-10T17:45:33.698Z,99.90
2019-02-10T17:48:34.303Z,99.90
2019-02-10T17:51:36.488Z,99.90
2019-02-10T17:54:38.348Z,99.90
2019-02-10T17:57:39.168Z,99.90
2019-02-10T18:00:41.227Z,99.90
2019-02-10T18:03:41.790Z,99.90
2019-02-10T18:06:42.597Z,99.90
2019-02-10T18:09:43.918Z,99.90
2019-02-10T18:12:44.277Z,99.90
2019-02-10T18:15:49.537Z,99.90
2019-02-10T18:22:19.587Z,99.90
2019-02-10T18:25:24.858Z,99.90
2019-02-10T18:28:27.332Z,99.90
2019-02-10T18:31:47.374Z,99.90
2019-02-10T18:34:55.946Z,99.90
2019-02-10T18:38:16.188Z,99.90
2019-02-10T18:41:22.846Z,99.90
2019-02-10T18:44:24.890Z,99.90
2019-02-10T18:47:27.473Z,99.90
2019-02-10T18:50:47.128Z,99.90
2019-02-10T19:00:24.143Z,99.90
2019-02-10T19:03:43.824Z,99.90
2019-02-10T19:06:53.354Z,99.90
2019-02-10T19:09:56.050Z,99.90
2019-02-10T19:13:16.050Z,99.90
2019-02-10T19:16:21.775Z,99.90
2019-02-10T19:19:44.793Z,99.90
2019-02-10T19:23:05.047Z,99.90
2019-02-10T19:26:25.253Z,99.90
2019-02-10T19:32:42.366Z,99.90
2019-02-10T19:35:48.561Z,99.90
2019-02-10T19:38:54.055Z,99.90
2019-02-10T19:45:16.484Z,99.90
2019-02-10T19:48:36.740Z,99.90
2019-02-10T19:51:57.214Z,99.90
2019-02-10T19:55:16.895Z,99.90
2019-02-10T19:58:23.646Z,99.90
2019-02-10T20:01:29.496Z,99.90
2019-02-10T20:04:31.965Z,99.90
2019-02-10T20:07:51.953Z,99.90
2019-02-10T20:11:11.835Z,99.90
2019-02-10T20:14:17.165Z,99.90
2019-02-10T20:17:37.860Z,99.90
2019-02-10T20:20:47.488Z,99.90
2019-02-10T20:24:07.979Z,99.90
2019-02-10T20:27:13.627Z,99.90
2019-02-10T20:30:34.994Z,99.90
2019-02-10T20:33:37.548Z,99.90
2019-02-10T20:36:57.848Z,99.90
2019-02-10T20:40:06.850Z,99.90
2019-02-10T20:43:12.425Z,99.90
2019-02-10T20:46:15.497Z,99.90
2019-02-10T20:49:17.789Z,99.90
2019-02-10T20:55:37.919Z,99.90
2019-02-10T20:58:57.770Z,99.90
2019-02-10T21:02:22.554Z,99.90
2019-02-10T21:05:42.438Z,99.90
2019-02-10T21:08:51.330Z,99.90
2019-02-10T21:15:21.115Z,99.90
2019-02-10T21:18:41.296Z,99.90
2019-02-10T21:21:44.150Z,99.90
2019-02-10T21:24:46.395Z,99.90
2019-02-10T21:27:48.751Z,99.90
2019-02-10T21:31:08.466Z,99.90
2019-02-10T21:34:17.169Z,99.90
2019-02-10T21:37:20.066Z,99.90
2019-02-10T21:40:22.262Z,99.90
2019-02-10T21:43:27.694Z,99.90
2019-02-10T21:46:30.105Z,99.90
2019-02-10T21:49:30.686Z,99.90
2019-02-10T21:52:31.005Z,99.90
2019-02-10T21:55:31.735Z,99.90
2019-02-10T21:58:32.191Z,99.90
2019-02-10T22:01:33.082Z,99.90
2019-02-10T22:04:21.772Z,99.90
2019-02-10T22:07:29.841Z,99.90
2019-02-10T22:10:30.865Z,99.90
2019-02-10T22:13:31.428Z,99.90
2019-02-10T22:16:32.089Z,99.90
2019-02-10T22:19:32.853Z,99.90
2019-02-10T22:22:33.786Z,99.90
2019-02-10T22:25:34.457Z,99.90
2019-02-10T22:28:35.520Z,99.90
2019-02-10T22:31:36.877Z,99.90
2019-02-10T22:34:37.886Z,99.90
2019-02-10T22:37:39.192Z,99.90
2019-02-10T22:40:39.801Z,99.90
2019-02-10T22:43:40.646Z,99.90
2019-02-10T22:46:41.369Z,99.90
2019-02-10T22:49:42.404Z,99.90
2019-02-10T22:52:43.115Z,99.90
2019-02-10T22:55:44.321Z,99.90
2019-02-10T22:58:45.110Z,99.90
2019-02-10T23:01:46.129Z,99.90
2019-02-10T23:04:46.852Z,99.90
2019-02-10T23:07:47.705Z,99.90
2019-02-10T23:10:48.235Z,99.90
2019-02-10T23:13:48.789Z,99.90
2019-02-10T23:16:49.182Z,99.90
2019-02-10T23:19:49.620Z,99.90
2019-02-10T23:22:50.504Z,99.90
2019-02-10T23:25:51.187Z,99.90
2019-02-10T23:28:51.638Z,99.90
2019-02-10T23:31:52.085Z,99.90
2019-02-10T23:34:53.001Z,99.90
2019-02-10T23:37:53.518Z,99.90
2019-02-10T23:40:54.029Z,99.90
2019-02-10T23:43:54.521Z,99.90
2019-02-10T23:46:55.239Z,99.90
2019-02-10T23:49:55.547Z,99.90
2019-02-10T23:52:55.889Z,99.90
2019-02-10T23:55:56.188Z,99.90
2019-02-10T23:58:56.893Z,99.90
